Time;durP1;ratioP1;P1;durP2;ratioP2;P2;SDS_P1;SDS_P2;PMS_P1;PMS_P2;Temp;Humidity;BMP_temperature;BMP_pressure;BME280_temperature;BME280_humidity;BME280_pressure;Samples;Min_cycle;Max_cycle;Signal;HPM_P1;HPM_P2
2022/05/04 00:01:39;;;;;;;6.78;5.00;;;14.20;64.00;;;;;;5022181;28;20036;-72
2022/05/04 00:04:06;;;;;;;5.05;4.55;;;14.10;64.10;;;;;;5035769;28;20114;-72
2022/05/04 00:06:31;;;;;;;8.57;5.43;;;14.10;64.20;;;;;;5025128;28;20037;-72
2022/05/04 00:08:57;;;;;;;6.32;4.35;;;14.10;64.40;;;;;;5059585;28;20615;-73
2022/05/04 00:11:22;;;;;;;5.75;4.85;;;14.10;64.40;;;;;;5002906;28;20037;-72
2022/05/04 00:13:48;;;;;;;8.70;5.07;;;14.10;64.50;;;;;;5003369;28;20044;-72
2022/05/04 00:16:13;;;;;;;7.00;4.43;;;14.10;64.50;;;;;;5042546;28;20037;-72
2022/05/04 00:18:39;;;;;;;10.18;4.82;;;14.10;64.70;;;;;;5030704;28;20029;-72
2022/05/04 00:21:07;;;;;;;6.07;4.97;;;14.10;64.70;;;;;;5061118;28;20067;-72
2022/05/04 00:23:32;;;;;;;6.68;5.05;;;14.00;64.80;;;;;;5062924;28;20045;-72
2022/05/04 00:25:58;;;;;;;8.32;5.20;;;14.00;64.80;;;;;;5043857;28;20052;-72
2022/05/04 00:28:24;;;;;;;5.50;4.97;;;14.00;64.90;;;;;;5026817;28;20541;-72
2022/05/04 00:30:49;;;;;;;6.00;5.40;;;14.00;65.10;;;;;;5032581;28;20033;-72
2022/05/04 00:33:15;;;;;;;7.00;4.88;;;14.00;65.10;;;;;;5048148;28;20126;-72
2022/05/04 00:35:40;;;;;;;5.70;4.75;;;14.00;65.20;;;;;;5026527;28;20593;-72
2022/05/04 00:38:06;;;;;;;6.78;5.10;;;14.00;65.30;;;;;;5027921;28;20041;-72
2022/05/04 00:40:32;;;;;;;6.93;5.35;;;14.00;65.40;;;;;;5024096;28;22056;-73
2022/05/04 00:42:57;;;;;;;7.13;5.70;;;13.90;65.60;;;;;;5033511;28;20048;-72
2022/05/04 00:45:23;;;;;;;6.25;4.93;;;13.90;65.60;;;;;;5024332;28;20056;-73
2022/05/04 00:47:48;;;;;;;5.72;5.13;;;13.90;65.70;;;;;;5027617;28;20117;-71
2022/05/04 00:50:14;;;;;;;6.13;4.60;;;13.90;65.80;;;;;;5032842;28;20599;-72
2022/05/04 00:52:42;;;;;;;6.85;5.32;;;13.90;65.80;;;;;;5012025;28;20542;-72
2022/05/04 00:55:08;;;;;;;8.32;5.53;;;13.80;65.90;;;;;;5042823;28;20405;-71
2022/05/04 01:00:19;;;;;;;6.50;5.35;;;13.80;66.00;;;;;;5039254;28;20082;-73
2022/05/04 01:02:45;;;;;;;5.88;5.28;;;13.80;66.10;;;;;;5027360;28;20033;-72
2022/05/04 01:05:11;;;;;;;9.45;5.20;;;13.80;66.40;;;;;;5039572;28;20132;-72
2022/05/04 01:07:39;;;;;;;6.85;5.00;;;13.80;66.20;;;;;;5018326;28;20596;-71
2022/05/04 01:10:06;;;;;;;7.18;5.45;;;13.70;66.30;;;;;;5006228;28;20411;-71
2022/05/04 01:12:31;;;;;;;5.18;4.65;;;13.80;66.40;;;;;;5023665;28;20049;-71
2022/05/04 01:14:58;;;;;;;6.63;5.28;;;13.80;66.40;;;;;;5038268;28;20041;-72
2022/05/04 01:17:24;;;;;;;6.07;4.95;;;13.80;66.40;;;;;;5019654;28;20123;-71
2022/05/04 01:19:49;;;;;;;6.45;5.22;;;13.80;66.50;;;;;;5023585;28;20089;-71
2022/05/04 01:22:15;;;;;;;5.47;4.80;;;13.80;66.50;;;;;;5016857;28;20060;-72
2022/05/04 01:24:40;;;;;;;6.88;4.63;;;13.70;66.50;;;;;;5003873;28;20048;-72
2022/05/04 01:27:12;;;;;;;11.15;5.60;;;13.70;66.50;;;;;;5038700;28;20033;-72
2022/05/04 01:29:37;;;;;;;5.63;5.13;;;13.70;66.90;;;;;;5027779;28;20057;-73
2022/05/04 01:32:03;;;;;;;5.80;5.20;;;13.70;66.80;;;;;;5030547;28;20048;-72
2022/05/04 01:34:29;;;;;;;10.05;5.82;;;13.70;66.90;;;;;;5059183;28;20033;-72
2022/05/04 01:36:55;;;;;;;5.22;4.72;;;13.70;66.90;;;;;;5028082;28;20045;-72
2022/05/04 01:39:20;;;;;;;7.55;5.40;;;13.70;67.00;;;;;;5061464;28;20083;-72
2022/05/04 01:42:05;;;;;;;5.57;5.00;;;13.70;67.00;;;;;;5022926;28;20109;-72
2022/05/04 01:44:33;;;;;;;6.78;5.38;;;13.70;67.00;;;;;;5025613;28;20068;-72
2022/05/04 01:47:00;;;;;;;6.90;5.18;;;13.70;67.10;;;;;;5054102;28;20044;-74
2022/05/04 01:49:37;;;;;;;7.30;5.10;;;13.70;67.20;;;;;;5036562;27;1228737;-73
2022/05/04 01:52:03;;;;;;;6.50;4.80;;;13.70;67.20;;;;;;5058844;28;20041;-73
2022/05/04 01:54:28;;;;;;;5.70;5.10;;;13.70;67.30;;;;;;5058070;28;20067;-73
2022/05/04 01:56:54;;;;;;;7.15;5.55;;;13.70;67.30;;;;;;5047403;28;20448;-73
2022/05/04 01:59:19;;;;;;;5.90;5.32;;;13.70;67.50;;;;;;5050619;28;20037;-72
2022/05/04 02:01:45;;;;;;;7.35;4.97;;;13.70;67.60;;;;;;5045432;28;20036;-72
2022/05/04 02:04:11;;;;;;;6.63;5.25;;;13.60;67.40;;;;;;5050687;28;20040;-72
2022/05/04 02:06:37;;;;;;;6.90;5.45;;;13.70;67.60;;;;;;5053730;28;20100;-74
2022/05/04 02:09:03;;;;;;;6.65;5.68;;;13.70;67.70;;;;;;5045384;28;20048;-72
2022/05/04 02:11:29;;;;;;;6.82;5.00;;;13.60;67.60;;;;;;5028851;28;20033;-71
2022/05/04 02:13:54;;;;;;;8.68;5.22;;;13.70;67.70;;;;;;5055769;28;20037;-72
2022/05/04 02:16:20;;;;;;;6.45;5.25;;;13.70;68.50;;;;;;5035211;28;20040;-72
2022/05/04 02:18:45;;;;;;;7.78;5.60;;;13.60;67.70;;;;;;5042670;28;20047;-72
2022/05/04 02:21:11;;;;;;;5.45;4.95;;;13.70;67.80;;;;;;5054145;28;20037;-72
2022/05/04 02:23:36;;;;;;;6.53;5.63;;;13.60;67.90;;;;;;5047026;28;20467;-72
2022/05/04 02:26:02;;;;;;;6.18;5.07;;;13.70;68.00;;;;;;5048989;28;20514;-72
2022/05/04 02:28:27;;;;;;;7.55;5.80;;;13.60;68.00;;;;;;5025203;28;20056;-72
2022/05/04 02:30:53;;;;;;;5.97;5.38;;;13.60;68.00;;;;;;5065500;28;20120;-72
2022/05/04 02:33:18;;;;;;;6.40;5.40;;;13.60;68.00;;;;;;5050098;28;20123;-73
2022/05/04 02:38:28;;;;;;;6.32;5.72;;;13.60;68.20;;;;;;5056030;28;20547;-72
2022/05/04 02:40:54;;;;;;;5.50;5.00;;;13.60;68.20;;;;;;5062871;28;20025;-73
2022/05/04 02:43:19;;;;;;;7.70;5.22;;;13.60;68.30;;;;;;5042579;28;20029;-72
2022/05/04 02:45:45;;;;;;;6.63;5.75;;;13.60;68.30;;;;;;5054602;28;20729;-73
2022/05/04 02:48:10;;;;;;;6.72;5.63;;;13.60;68.40;;;;;;5005812;28;20048;-73
2022/05/04 02:50:36;;;;;;;6.10;4.93;;;13.50;68.30;;;;;;5042813;28;20051;-73
2022/05/04 02:53:07;;;;;;;7.18;5.53;;;13.60;68.50;;;;;;5024493;28;20168;-72
2022/05/04 02:55:32;;;;;;;7.47;5.63;;;13.50;68.40;;;;;;5039930;28;20421;-72
2022/05/04 02:57:58;;;;;;;7.20;6.15;;;13.60;68.70;;;;;;5033123;28;20032;-72
2022/05/04 03:00:25;;;;;;;5.88;5.25;;;13.50;68.60;;;;;;5041879;28;20052;-72
2022/05/04 03:02:50;;;;;;;6.30;5.65;;;13.60;68.80;;;;;;5034357;28;20035;-72
2022/05/04 03:05:16;;;;;;;9.52;6.05;;;13.50;68.80;;;;;;5037648;28;20056;-73
2022/05/04 03:07:42;;;;;;;7.68;5.43;;;13.50;68.80;;;;;;5043592;28;20083;-72
2022/05/04 03:10:08;;;;;;;6.53;5.47;;;13.50;68.80;;;;;;5027393;28;20032;-72
2022/05/04 03:12:33;;;;;;;6.47;5.15;;;13.50;68.90;;;;;;5044507;28;20044;-72
2022/05/04 03:14:59;;;;;;;6.32;5.47;;;13.50;68.90;;;;;;5039463;28;20057;-72
2022/05/04 03:17:25;;;;;;;6.07;5.30;;;13.50;69.00;;;;;;5042786;28;20041;-72
2022/05/04 03:19:50;;;;;;;7.47;5.32;;;13.50;69.00;;;;;;5021290;28;20310;-73
2022/05/04 03:22:16;;;;;;;6.75;6.03;;;13.50;69.10;;;;;;5016995;28;20055;-72
2022/05/04 03:24:41;;;;;;;6.88;6.18;;;13.50;69.10;;;;;;5013358;28;20037;-73
2022/05/04 03:27:07;;;;;;;7.38;5.93;;;13.50;69.20;;;;;;5016399;28;20105;-72
2022/05/04 03:29:33;;;;;;;7.88;5.78;;;13.50;69.30;;;;;;4992948;28;20116;-72
2022/05/04 03:31:58;;;;;;;6.15;5.55;;;13.40;69.20;;;;;;5018995;28;20088;-72
2022/05/04 03:34:24;;;;;;;9.50;5.20;;;13.40;69.40;;;;;;5001867;28;20030;-73
2022/05/04 03:36:49;;;;;;;7.65;5.72;;;13.40;69.50;;;;;;5020170;28;20025;-72
2022/05/04 03:39:15;;;;;;;6.10;5.50;;;13.40;69.50;;;;;;5013237;28;20464;-72
2022/05/04 03:41:40;;;;;;;6.35;5.75;;;13.40;69.50;;;;;;5013587;28;20655;-72
2022/05/04 03:44:06;;;;;;;6.38;5.22;;;13.40;69.60;;;;;;5014981;28;20529;-72
2022/05/04 03:46:45;;;;;;;7.13;5.45;;;13.40;69.60;;;;;;5017658;28;20702;-72
2022/05/04 03:49:11;;;;;;;6.97;5.25;;;13.40;70.10;;;;;;5004760;28;20635;-72
2022/05/04 03:51:37;;;;;;;5.75;5.22;;;13.40;69.70;;;;;;5004822;28;20030;-72
2022/05/04 03:54:03;;;;;;;7.72;6.03;;;13.40;69.70;;;;;;5003200;28;20118;-73
2022/05/04 03:56:28;;;;;;;6.15;5.47;;;13.40;69.80;;;;;;4989109;28;20107;-73
2022/05/04 03:58:54;;;;;;;6.25;5.50;;;13.40;69.80;;;;;;5013464;28;20375;-73
2022/05/04 04:01:20;;;;;;;6.22;5.63;;;13.40;69.80;;;;;;4999543;28;20571;-72
2022/05/04 04:03:45;;;;;;;6.57;5.88;;;13.40;70.00;;;;;;5013559;28;20504;-72
2022/05/04 04:06:11;;;;;;;6.75;6.07;;;13.40;69.90;;;;;;5016046;28;20034;-72
2022/05/04 04:08:37;;;;;;;6.45;5.55;;;13.30;70.00;;;;;;5000876;28;20440;-72
2022/05/04 04:11:03;;;;;;;6.05;5.47;;;13.30;69.90;;;;;;4996676;28;20470;-72
2022/05/04 04:13:29;;;;;;;9.05;5.93;;;13.30;70.00;;;;;;4979233;28;20490;-72
2022/05/04 04:15:54;;;;;;;7.90;6.30;;;13.30;70.10;;;;;;5006668;28;20061;-74
2022/05/04 04:18:23;;;;;;;6.90;5.80;;;13.30;71.00;;;;;;4997280;28;20060;-72
2022/05/04 04:23:33;;;;;;;7.95;6.28;;;13.30;70.20;;;;;;5002632;28;20701;-73
2022/05/04 04:25:59;;;;;;;8.50;5.90;;;13.30;70.20;;;;;;4999204;28;20041;-74
2022/05/04 04:28:25;;;;;;;5.95;5.35;;;13.30;70.20;;;;;;4988273;28;20045;-73
2022/05/04 04:30:51;;;;;;;8.63;5.68;;;13.30;70.30;;;;;;5008567;28;20037;-72
2022/05/04 04:33:16;;;;;;;7.32;5.60;;;13.30;70.40;;;;;;4997661;28;20457;-72
2022/05/04 04:35:42;;;;;;;7.03;5.45;;;13.30;70.40;;;;;;5021096;28;20063;-71
2022/05/04 04:38:07;;;;;;;9.77;5.97;;;13.30;70.60;;;;;;5039478;28;20038;-73
2022/05/04 04:40:33;;;;;;;10.35;6.05;;;13.30;70.60;;;;;;5028176;28;20037;-74
2022/05/04 04:43:00;;;;;;;10.25;5.97;;;13.30;70.70;;;;;;5019749;28;20033;-72
2022/05/04 04:45:26;;;;;;;6.82;6.00;;;13.30;70.80;;;;;;5035904;28;20045;-73
2022/05/04 04:47:52;;;;;;;9.95;6.32;;;13.30;70.90;;;;;;5010756;28;20106;-75
2022/05/04 04:50:18;;;;;;;6.65;5.93;;;13.30;71.00;;;;;;5042314;28;20044;-73
2022/05/04 04:52:43;;;;;;;7.38;5.85;;;13.30;71.00;;;;;;5051445;28;20094;-73
2022/05/04 04:55:09;;;;;;;7.82;5.80;;;13.30;71.10;;;;;;5036718;28;20084;-73
2022/05/04 04:57:34;;;;;;;7.03;6.32;;;13.30;71.10;;;;;;5007931;28;20028;-73
2022/05/04 05:00:00;;;;;;;7.40;5.97;;;13.30;71.30;;;;;;5022963;28;20017;-73
2022/05/04 05:02:26;;;;;;;7.93;6.28;;;13.30;71.20;;;;;;5052449;28;20031;-73
2022/05/04 05:04:51;;;;;;;8.30;5.70;;;13.30;71.30;;;;;;5028394;28;20108;-74
2022/05/04 05:07:17;;;;;;;6.45;5.55;;;13.30;71.20;;;;;;5018977;28;20677;-74
2022/05/04 05:09:42;;;;;;;6.28;5.60;;;13.30;71.20;;;;;;5051832;28;20379;-73
2022/05/04 05:12:08;;;;;;;7.85;6.28;;;13.30;71.30;;;;;;5043005;28;20025;-73
2022/05/04 05:17:18;;;;;;;6.80;6.10;;;13.40;71.40;;;;;;5021617;28;20929;-73
2022/05/04 05:19:44;;;;;;;10.23;6.47;;;13.40;71.40;;;;;;5051270;28;20033;-74
2022/05/04 05:22:09;;;;;;;8.27;6.07;;;13.40;71.40;;;;;;5042832;28;20082;-73
2022/05/04 05:24:35;;;;;;;6.68;5.95;;;13.40;71.60;;;;;;5051117;28;20040;-71
2022/05/04 05:27:00;;;;;;;7.88;5.45;;;13.40;71.60;;;;;;5037150;28;20041;-74
2022/05/04 05:29:26;;;;;;;8.95;6.35;;;13.40;71.50;;;;;;5029432;28;20033;-72
2022/05/04 05:31:51;;;;;;;9.57;6.93;;;13.40;71.70;;;;;;5029298;28;20086;-73
2022/05/04 05:34:17;;;;;;;8.27;5.93;;;13.50;71.80;;;;;;5052569;28;20041;-73
2022/05/04 05:36:43;;;;;;;8.43;6.53;;;13.50;71.70;;;;;;5024849;28;20126;-73
2022/05/04 05:39:08;;;;;;;8.50;6.22;;;13.50;71.70;;;;;;4976288;28;20648;-73
2022/05/04 05:41:34;;;;;;;8.40;6.20;;;13.50;71.70;;;;;;5019041;28;20061;-74
2022/05/04 05:44:00;;;;;;;8.95;6.22;;;13.60;71.80;;;;;;5003119;28;20076;-72
2022/05/04 05:46:26;;;;;;;9.02;6.90;;;13.60;71.70;;;;;;5004191;28;20033;-73
2022/05/04 05:48:51;;;;;;;8.68;6.32;;;13.60;71.90;;;;;;4995870;28;20060;-73
2022/05/04 05:51:17;;;;;;;6.60;5.90;;;13.60;71.90;;;;;;5005424;28;20061;-73
2022/05/04 05:53:42;;;;;;;11.00;7.63;;;13.60;72.00;;;;;;5017180;28;20030;-73
2022/05/04 05:56:08;;;;;;;7.55;6.47;;;13.70;72.10;;;;;;5022359;28;20059;-73
2022/05/04 05:58:33;;;;;;;11.23;7.32;;;13.70;72.10;;;;;;5024846;28;20029;-75
2022/05/04 06:00:59;;;;;;;10.40;7.25;;;13.70;72.10;;;;;;5017686;28;20060;-75
2022/05/04 06:03:24;;;;;;;11.88;8.02;;;13.70;72.20;;;;;;5024537;28;20162;-72
2022/05/04 06:05:50;;;;;;;9.25;7.35;;;13.80;72.30;;;;;;5033146;28;20495;-72
2022/05/04 06:08:15;;;;;;;9.50;6.70;;;13.80;72.20;;;;;;5008151;28;20367;-73
2022/05/04 06:10:41;;;;;;;9.88;7.72;;;13.80;72.10;;;;;;5011731;28;20563;-73
2022/05/04 06:13:07;;;;;;;9.63;7.15;;;13.90;72.10;;;;;;5004176;28;21627;-72
2022/05/04 06:15:33;;;;;;;10.77;7.68;;;13.90;72.20;;;;;;5007353;28;20051;-73
2022/05/04 06:17:58;;;;;;;11.30;8.77;;;14.00;72.20;;;;;;5002997;28;20506;-73
2022/05/04 06:20:24;;;;;;;11.02;8.38;;;14.00;72.20;;;;;;5019917;28;20033;-72
2022/05/04 06:22:52;;;;;;;12.35;8.30;;;14.00;72.10;;;;;;5010561;28;20589;-72
2022/05/04 06:25:18;;;;;;;12.48;8.65;;;14.10;72.20;;;;;;5007754;28;20045;-74
2022/05/04 06:27:43;;;;;;;32.10;9.82;;;14.10;72.10;;;;;;5023550;28;20107;-72
2022/05/04 06:35:38;;;;;;;10.68;8.00;;;14.30;72.10;;;;;;5036546;28;20071;-73
2022/05/04 06:38:04;;;;;;;9.90;7.45;;;14.30;71.90;;;;;;5042464;28;20079;-75
2022/05/04 06:40:29;;;;;;;8.80;7.18;;;14.30;71.90;;;;;;5031279;28;20084;-73
2022/05/04 06:42:55;;;;;;;10.43;6.82;;;14.40;71.90;;;;;;5024461;28;20029;-72
2022/05/04 06:45:20;;;;;;;10.15;8.05;;;14.50;71.90;;;;;;5041218;28;20029;-73
2022/05/04 06:47:46;;;;;;;10.48;7.07;;;14.50;71.80;;;;;;5038290;28;20101;-74
2022/05/04 06:50:11;;;;;;;11.05;7.65;;;14.60;71.70;;;;;;5007486;28;20033;-73
2022/05/04 06:52:37;;;;;;;8.90;7.20;;;14.60;71.60;;;;;;5022279;28;20413;-73
2022/05/04 06:55:04;;;;;;;12.13;7.10;;;14.70;71.50;;;;;;5041847;28;20481;-73
2022/05/04 06:57:29;;;;;;;14.93;7.45;;;14.70;71.30;;;;;;5040260;28;20034;-73
2022/05/04 06:59:55;;;;;;;8.05;7.25;;;14.70;71.10;;;;;;5041037;28;20056;-73
2022/05/04 07:02:21;;;;;;;12.00;7.25;;;14.80;71.00;;;;;;5034726;28;20025;-73
2022/05/04 07:04:46;;;;;;;8.32;6.97;;;14.80;70.90;;;;;;5040321;28;20029;-75
2022/05/04 07:07:12;;;;;;;9.50;6.82;;;14.90;70.80;;;;;;5042141;28;20397;-72
2022/05/04 07:09:37;;;;;;;8.13;6.70;;;14.90;70.70;;;;;;5034033;28;20040;-73
2022/05/04 07:12:03;;;;;;;15.20;7.70;;;15.00;70.60;;;;;;5028653;28;20102;-73
2022/05/04 07:14:29;;;;;;;9.93;8.50;;;15.00;70.40;;;;;;5042369;28;20410;-73
2022/05/04 07:16:55;;;;;;;17.80;9.52;;;15.10;70.30;;;;;;5019277;28;20040;-73
2022/05/04 07:19:20;;;;;;;13.02;8.10;;;15.10;70.10;;;;;;5045374;28;20044;-73
2022/05/04 07:21:46;;;;;;;13.23;8.07;;;15.20;70.00;;;;;;5044682;28;20041;-73
2022/05/04 07:24:11;;;;;;;14.98;7.68;;;15.30;69.90;;;;;;5030576;28;20036;-72
2022/05/04 07:26:40;;;;;;;11.13;8.10;;;15.50;70.20;;;;;;5032331;28;20055;-73
2022/05/04 07:29:06;;;;;;;14.27;8.25;;;15.60;69.60;;;;;;5034386;28;20041;-72
2022/05/04 07:31:32;;;;;;;10.45;7.55;;;15.70;69.30;;;;;;5025952;28;20041;-72
2022/05/04 07:33:57;;;;;;;12.50;8.15;;;15.90;69.10;;;;;;5013449;28;20394;-74
2022/05/04 07:36:23;;;;;;;13.70;8.20;;;16.00;68.90;;;;;;5047894;28;20601;-73
2022/05/04 07:38:48;;;;;;;10.55;7.90;;;16.10;68.60;;;;;;5034093;28;20036;-73
2022/05/04 07:43:59;;;;;;;9.88;7.20;;;16.50;68.30;;;;;;5042544;28;20070;-73
2022/05/04 07:46:26;;;;;;;11.93;8.18;;;16.60;67.90;;;;;;5016665;28;20049;-73
2022/05/04 07:48:51;;;;;;;13.10;7.45;;;16.80;67.70;;;;;;5032068;28;20049;-73
2022/05/04 07:51:17;;;;;;;12.82;7.75;;;17.10;67.40;;;;;;5025477;28;20037;-73
2022/05/04 07:53:42;;;;;;;12.00;7.00;;;17.30;67.10;;;;;;5049207;28;20033;-74
2022/05/04 07:56:08;;;;;;;10.63;7.97;;;17.50;66.60;;;;;;5055573;28;20067;-73
2022/05/04 07:58:34;;;;;;;13.88;8.25;;;17.70;66.20;;;;;;5032729;28;20070;-74
2022/05/04 08:06:28;;;;;;;13.05;7.25;;;18.20;65.00;;;;;;5010643;28;20075;-73
2022/05/04 08:08:53;;;;;;;9.98;7.50;;;18.40;64.60;;;;;;5028243;28;20042;-74
2022/05/04 08:11:19;;;;;;;11.25;7.20;;;18.50;64.20;;;;;;5006429;28;20190;-73
2022/05/04 08:13:44;;;;;;;10.32;6.68;;;18.60;63.90;;;;;;5022628;28;20039;-73
2022/05/04 08:16:11;;;;;;;11.20;6.93;;;18.70;63.60;;;;;;5018098;28;20269;-72
2022/05/04 08:18:40;;;;;;;16.70;6.72;;;18.70;63.20;;;;;;5010369;28;20036;-72
2022/05/04 08:21:09;;;;;;;10.15;6.75;;;18.90;63.00;;;;;;4997684;28;20097;-73
2022/05/04 08:23:34;;;;;;;7.28;6.53;;;19.00;62.70;;;;;;5018090;28;20034;-72
2022/05/04 08:26:01;;;;;;;6.85;6.10;;;19.00;62.30;;;;;;5010017;28;20030;-73
2022/05/04 08:28:27;;;;;;;7.70;6.15;;;19.10;62.10;;;;;;5010662;28;20040;-73
2022/05/04 08:30:52;;;;;;;11.10;7.07;;;19.20;61.90;;;;;;5005701;28;20037;-73
2022/05/04 08:33:18;;;;;;;8.95;6.03;;;19.30;61.60;;;;;;5009919;28;20041;-72
2022/05/04 08:35:44;;;;;;;7.88;6.20;;;19.40;61.40;;;;;;4989468;28;20029;-73
2022/05/04 08:38:10;;;;;;;7.63;6.20;;;19.50;61.10;;;;;;5001475;28;20034;-73
2022/05/04 08:40:35;;;;;;;10.98;7.10;;;19.70;60.80;;;;;;5023626;28;20379;-73
2022/05/04 08:43:05;;;;;;;10.00;6.38;;;19.90;60.50;;;;;;4999157;28;20025;-73
2022/05/04 08:45:31;;;;;;;7.97;6.47;;;20.00;60.20;;;;;;5018995;28;20057;-73
2022/05/04 08:47:56;;;;;;;11.85;6.40;;;20.10;59.80;;;;;;4984903;28;20494;-74
2022/05/04 08:50:23;;;;;;;8.40;6.38;;;20.20;59.50;;;;;;5020088;28;20033;-73
2022/05/04 08:52:53;;;;;;;6.72;6.03;;;20.40;59.30;;;;;;5021833;28;20074;-74
2022/05/04 08:55:19;;;;;;;7.45;5.85;;;20.40;59.10;;;;;;5013515;28;20033;-74
2022/05/04 08:57:45;;;;;;;7.05;6.05;;;20.60;58.90;;;;;;5027064;28;20580;-74
2022/05/04 09:00:11;;;;;;;7.60;6.38;;;20.70;58.70;;;;;;5017913;28;20038;-74
2022/05/04 09:02:38;;;;;;;8.13;5.60;;;20.80;59.10;;;;;;5009034;28;20033;-73
2022/05/04 09:05:25;;;;;;;8.43;6.40;;;20.90;58.20;;;;;;5012914;28;20037;-73
2022/05/04 09:07:56;;;;;;;7.65;5.75;;;21.00;57.50;;;;;;5006232;28;20041;-73
2022/05/04 09:10:24;;;;;;;8.65;7.07;;;21.10;57.70;;;;;;5031679;28;20716;-73
2022/05/04 09:12:52;;;;;;;10.88;6.07;;;21.20;57.60;;;;;;4998608;28;20049;-73
2022/05/04 09:15:30;;;;;;;9.13;6.30;;;21.30;57.50;;;;;;5002674;28;20029;-73
2022/05/04 09:17:59;;;;;;;11.57;6.20;;;21.40;57.20;;;;;;5002877;28;20030;-74
2022/05/04 09:20:47;;;;;;;8.00;6.03;;;21.60;57.20;;;;;;5021315;28;20121;-74
2022/05/04 09:23:15;;;;;;;10.00;6.68;;;21.70;57.00;;;;;;5005418;28;20115;-72
2022/05/04 09:25:40;;;;;;;6.80;5.85;;;21.90;56.70;;;;;;5005947;28;20037;-75
2022/05/04 09:28:13;;;;;;;11.45;6.13;;;22.10;56.50;;;;;;5022189;28;20125;-73
2022/05/04 09:30:49;;;;;;;9.35;5.32;;;22.30;56.20;;;;;;4992753;28;20041;-74
2022/05/04 09:33:20;;;;;;;6.50;5.80;;;22.40;56.00;;;;;;5002567;28;20056;-73
2022/05/04 09:35:46;;;;;;;12.93;6.40;;;22.60;55.90;;;;;;5020575;28;20034;-74
2022/05/04 09:46:42;;;;;;;8.32;6.55;;;23.30;54.90;;;;;;5012026;28;20128;-74
2022/05/04 09:49:15;;;;;;;9.50;6.80;;;23.40;54.70;;;;;;5034379;28;20846;-75
2022/05/04 09:51:44;;;;;;;7.50;6.07;;;23.50;54.20;;;;;;5019302;28;20044;-73
2022/05/04 09:54:14;;;;;;;13.40;7.20;;;23.70;54.20;;;;;;5010767;28;20601;-73
2022/05/04 09:56:40;;;;;;;10.80;6.28;;;23.80;53.90;;;;;;5033212;28;20037;-73
2022/05/04 09:59:06;;;;;;;6.82;6.13;;;23.90;53.70;;;;;;4985456;28;20038;-73
2022/05/04 10:01:32;;;;;;;7.93;6.22;;;24.10;53.60;;;;;;5017304;28;20048;-74
2022/05/04 10:04:00;;;;;;;6.57;5.90;;;24.20;53.20;;;;;;5004479;28;20112;-73
2022/05/04 10:06:26;;;;;;;6.95;6.25;;;24.40;53.10;;;;;;5001864;28;20069;-73
2022/05/04 10:08:51;;;;;;;6.63;5.95;;;24.60;52.80;;;;;;5018079;28;20531;-73
2022/05/04 10:11:17;;;;;;;7.20;6.10;;;24.80;52.60;;;;;;5011151;28;20545;-73
2022/05/04 10:13:43;;;;;;;8.10;6.65;;;25.00;52.30;;;;;;4991714;28;20068;-73
2022/05/04 10:16:10;;;;;;;7.55;6.13;;;25.20;51.90;;;;;;5008466;28;20498;-74
2022/05/04 10:18:35;;;;;;;6.38;5.50;;;25.40;51.60;;;;;;5004055;28;20465;-74
2022/05/04 10:21:12;;;;;;;5.60;5.10;;;25.50;51.30;;;;;;5024432;28;20033;-73
2022/05/04 10:23:41;;;;;;;6.30;5.63;;;25.70;50.70;;;;;;5013685;28;20036;-74
2022/05/04 10:26:06;;;;;;;7.50;5.72;;;25.90;50.70;;;;;;5000476;28;20037;-73
2022/05/04 10:28:36;;;;;;;6.15;5.45;;;26.10;50.40;;;;;;5016630;28;20052;-74
2022/05/04 10:31:02;;;;;;;5.65;5.07;;;26.30;49.80;;;;;;5024460;28;20755;-74
2022/05/04 10:33:32;;;;;;;5.35;4.10;;;26.50;49.50;;;;;;4991443;28;20041;-74
2022/05/04 10:36:12;;;;;;;4.47;4.07;;;26.60;48.80;;;;;;5000603;28;20033;-73
2022/05/04 10:38:38;;;;;;;5.32;4.32;;;26.80;48.60;;;;;;4995679;28;20034;-73
2022/05/04 10:41:07;;;;;;;5.85;4.43;;;27.00;48.50;;;;;;4999731;28;20117;-74
2022/05/04 10:43:37;;;;;;;5.43;4.18;;;27.10;48.10;;;;;;5018363;28;20503;-74
2022/05/04 10:46:05;;;;;;;7.97;5.28;;;27.30;47.60;;;;;;5020760;28;20041;-73
2022/05/04 10:48:31;;;;;;;5.93;4.97;;;27.50;47.40;;;;;;4994924;28;20095;-74
2022/05/04 10:51:02;;;;;;;5.00;4.47;;;27.60;47.10;;;;;;4997865;28;20037;-73
2022/05/04 10:53:28;;;;;;;5.30;3.90;;;27.80;46.40;;;;;;5022877;28;20034;-74
2022/05/04 10:55:55;;;;;;;7.53;3.65;;;28.00;46.30;;;;;;5038197;28;20414;-74
2022/05/04 10:58:41;;;;;;;4.72;3.92;;;28.10;45.80;;;;;;5043606;28;20145;-73
2022/05/04 11:01:27;;;;;;;3.75;3.40;;;28.30;44.50;;;;;;5034257;28;20170;-73
2022/05/04 11:04:11;;;;;;;6.65;3.67;;;28.50;44.50;;;;;;5034790;28;20040;-75
2022/05/04 11:06:36;;;;;;;6.10;3.38;;;28.70;44.20;;;;;;5045581;28;20052;-74
2022/05/04 11:09:10;;;;;;;6.03;4.57;;;28.90;44.60;;;;;;5041530;28;20064;-73
2022/05/04 11:11:36;;;;;;;4.05;3.15;;;28.90;43.30;;;;;;5015989;28;20647;-74
2022/05/04 11:14:02;;;;;;;3.58;3.28;;;29.00;43.70;;;;;;5041003;28;20029;-74
2022/05/04 11:16:28;;;;;;;3.97;3.50;;;29.00;43.60;;;;;;5019860;28;20186;-73
2022/05/04 11:18:55;;;;;;;6.97;3.88;;;29.20;43.40;;;;;;5043099;28;20053;-73
2022/05/04 11:21:21;;;;;;;7.38;3.83;;;29.30;43.00;;;;;;5002642;28;20060;-73
2022/05/04 11:23:47;;;;;;;4.38;3.67;;;29.40;42.90;;;;;;5003756;28;20034;-74
2022/05/04 11:26:23;;;;;;;3.63;3.33;;;29.50;42.70;;;;;;4999324;28;20036;-73
2022/05/04 11:28:50;;;;;;;4.88;4.00;;;29.70;42.30;;;;;;4999680;28;20068;-74
2022/05/04 11:31:16;;;;;;;3.45;3.10;;;29.80;42.00;;;;;;5018386;28;20045;-74
2022/05/04 11:33:46;;;;;;;27.42;4.63;;;29.80;41.80;;;;;;5034665;28;20042;-74
2022/05/04 11:36:12;;;;;;;6.80;3.40;;;29.80;41.70;;;;;;5009479;28;20038;-73
2022/05/04 11:38:37;;;;;;;3.83;3.15;;;29.90;41.60;;;;;;5003394;28;20041;-74
2022/05/04 11:41:03;;;;;;;3.72;3.42;;;29.80;41.40;;;;;;5007435;28;20084;-75
2022/05/04 11:43:33;;;;;;;25.83;4.68;;;29.90;41.40;;;;;;5016275;28;20040;-74
2022/05/04 11:46:03;;;;;;;14.35;3.50;;;29.90;41.20;;;;;;5031461;28;20088;-73
2022/05/04 11:48:30;;;;;;;5.90;3.40;;;30.00;41.10;;;;;;5020211;28;20054;-73
2022/05/04 11:50:55;;;;;;;3.72;3.30;;;30.00;40.90;;;;;;5005780;28;20056;-73
2022/05/04 11:53:21;;;;;;;3.50;3.10;;;29.90;40.60;;;;;;5006096;28;20537;-74
2022/05/04 11:55:46;;;;;;;3.83;3.45;;;29.80;40.60;;;;;;5020481;28;20037;-74
2022/05/04 11:58:14;;;;;;;3.08;2.83;;;29.80;40.40;;;;;;5018792;28;20140;-73
2022/05/04 12:00:40;;;;;;;3.70;2.38;;;29.60;40.40;;;;;;5008579;28;20091;-74
2022/05/04 12:03:05;;;;;;;2.72;1.70;;;29.40;40.40;;;;;;4992871;28;20030;-73
2022/05/04 12:05:35;;;;;;;2.53;1.50;;;29.10;40.00;;;;;;5012718;28;20045;-74
2022/05/04 12:08:04;;;;;;;4.03;1.50;;;28.80;39.70;;;;;;5022718;28;20151;-73
2022/05/04 12:10:30;;;;;;;6.47;1.88;;;28.40;39.70;;;;;;5021202;28;20398;-74
2022/05/04 12:12:56;;;;;;;13.45;2.08;;;27.80;39.50;;;;;;5009598;28;20037;-73
2022/05/04 12:15:32;;;;;;;9.55;2.72;;;27.20;39.70;;;;;;5015269;28;20599;-75
2022/05/04 12:18:02;;;;;;;15.88;3.70;;;26.50;40.50;;;;;;4991822;28;20060;-75
2022/05/04 12:20:28;;;;;;;11.00;3.40;;;25.80;41.30;;;;;;4999729;28;20029;-75
2022/05/04 12:22:57;;;;;;;11.63;3.63;;;25.30;42.50;;;;;;5019256;28;20029;-77
2022/05/04 12:25:23;;;;;;;7.15;3.05;;;24.90;42.40;;;;;;5003827;28;20038;-77
2022/05/04 12:27:50;;;;;;;8.93;2.65;;;24.50;43.10;;;;;;5030701;28;20040;-75
2022/05/04 12:33:09;;;;;;;10.88;2.72;;;24.20;44.30;;;;;;5016999;28;20110;-74
2022/05/04 12:35:42;;;;;;;4.25;2.45;;;24.10;44.70;;;;;;5002357;28;20042;-73
2022/05/04 12:38:09;;;;;;;7.40;2.15;;;24.00;45.10;;;;;;4961222;28;20471;-73
2022/05/04 12:40:34;;;;;;;5.15;2.10;;;23.90;45.40;;;;;;5005155;28;20057;-73
2022/05/04 12:43:01;;;;;;;5.20;1.88;;;23.80;45.70;;;;;;5019739;28;20079;-74
2022/05/04 12:45:27;;;;;;;3.38;2.08;;;23.80;45.90;;;;;;5017583;28;20025;-74
2022/05/04 12:47:56;;;;;;;3.95;1.73;;;23.70;46.10;;;;;;5009490;28;20053;-74
2022/05/04 12:50:25;;;;;;;6.25;2.22;;;23.60;47.20;;;;;;5003314;28;20030;-74
2022/05/04 12:52:51;;;;;;;2.92;2.08;;;23.50;46.80;;;;;;5002697;28;20109;-75
2022/05/04 12:55:17;;;;;;;4.18;2.55;;;23.40;47.00;;;;;;5023667;28;20114;-74
2022/05/04 12:57:42;;;;;;;4.03;2.13;;;23.20;47.40;;;;;;5022127;28;20048;-74
2022/05/04 13:00:12;;;;;;;4.70;2.25;;;23.10;47.60;;;;;;5017972;28;20056;-74
2022/05/04 13:02:39;;;;;;;4.57;2.08;;;23.00;47.90;;;;;;5012641;28;20030;-76
2022/05/04 13:05:06;;;;;;;5.35;2.28;;;22.90;48.20;;;;;;5009860;28;20041;-73
2022/05/04 13:07:31;;;;;;;2.55;1.73;;;22.80;48.60;;;;;;5016151;28;20033;-74
2022/05/04 13:09:57;;;;;;;3.60;2.20;;;22.60;48.80;;;;;;5018549;28;20091;-75
2022/05/04 13:12:22;;;;;;;7.25;2.20;;;22.60;49.20;;;;;;4994178;28;20084;-74
2022/05/04 13:14:48;;;;;;;5.15;2.47;;;22.40;49.40;;;;;;5027412;28;20033;-75
2022/05/04 13:17:13;;;;;;;4.70;2.47;;;22.30;49.60;;;;;;5017928;28;20037;-73
2022/05/04 13:19:39;;;;;;;4.40;2.15;;;22.20;49.90;;;;;;4995120;28;20247;-73